EGUB - Benson
Distance from station: E 5mi, 14km
Updated: 10/19/2017 7:50pm
Mostly Cloudy
Mostly Cloudy
 Wind from S
Wind: S 15 mph , 24 km/h
Temperature: 54°F , 12°C
Dew Point: 52°F , 11°C
Humidity: 94%
Barometer: 29.38 inHg , 995 hPa
Clouds: Mostly Cloudy
Visibility: 6 miles , 10 km
Cloud details: Mostly Cloudy 1200 ft
2017/10/20 02:50 EGUB 200250Z 18013KT 9999 BKN012 12/11 Q0995 GRN